sensor_id;sensor_type;location;lat;lon;timestamp;P1;durP1;ratioP1;P2;durP2;ratioP2
22064;SDS011;11197;53.110;8.468;2022-10-17T00:02:09;9.00;;;5.78;;
22064;SDS011;11197;53.110;8.468;2022-10-17T00:04:35;10.52;;;5.95;;
22064;SDS011;11197;53.110;8.468;2022-10-17T00:07:00;10.05;;;5.75;;
22064;SDS011;11197;53.110;8.468;2022-10-17T00:09:26;9.50;;;5.32;;
22064;SDS011;11197;53.110;8.468;2022-10-17T00:11:52;10.75;;;5.85;;
22064;SDS011;11197;53.110;8.468;2022-10-17T00:14:18;9.77;;;5.82;;
22064;SDS011;11197;53.110;8.468;2022-10-17T00:16:44;8.55;;;5.20;;
22064;SDS011;11197;53.110;8.468;2022-10-17T00:19:10;8.50;;;5.60;;
22064;SDS011;11197;53.110;8.468;2022-10-17T00:21:36;10.68;;;5.35;;
22064;SDS011;11197;53.110;8.468;2022-10-17T00:24:02;10.20;;;5.80;;
22064;SDS011;11197;53.110;8.468;2022-10-17T00:26:28;9.48;;;5.50;;
22064;SDS011;11197;53.110;8.468;2022-10-17T00:28:56;11.68;;;5.63;;
22064;SDS011;11197;53.110;8.468;2022-10-17T00:31:23;9.23;;;5.70;;
22064;SDS011;11197;53.110;8.468;2022-10-17T00:33:49;7.55;;;5.15;;
22064;SDS011;11197;53.110;8.468;2022-10-17T00:38:43;10.30;;;5.50;;
22064;SDS011;11197;53.110;8.468;2022-10-17T00:41:12;11.32;;;5.40;;
22064;SDS011;11197;53.110;8.468;2022-10-17T00:46:19;7.22;;;5.05;;
22064;SDS011;11197;53.110;8.468;2022-10-17T00:48:47;8.07;;;4.80;;
22064;SDS011;11197;53.110;8.468;2022-10-17T00:51:15;10.02;;;5.20;;
22064;SDS011;11197;53.110;8.468;2022-10-17T00:53:43;6.75;;;4.10;;
22064;SDS011;11197;53.110;8.468;2022-10-17T00:56:09;8.85;;;5.30;;
22064;SDS011;11197;53.110;8.468;2022-10-17T00:58:36;8.18;;;4.60;;
22064;SDS011;11197;53.110;8.468;2022-10-17T01:01:03;7.03;;;5.13;;
22064;SDS011;11197;53.110;8.468;2022-10-17T01:03:29;8.52;;;5.20;;
22064;SDS011;11197;53.110;8.468;2022-10-17T01:05:55;9.98;;;5.35;;
22064;SDS011;11197;53.110;8.468;2022-10-17T01:08:21;7.70;;;4.95;;
22064;SDS011;11197;53.110;8.468;2022-10-17T01:13:33;9.10;;;5.40;;
22064;SDS011;11197;53.110;8.468;2022-10-17T01:21:52;9.30;;;5.55;;
22064;SDS011;11197;53.110;8.468;2022-10-17T01:32:53;10.35;;;5.90;;
22064;SDS011;11197;53.110;8.468;2022-10-17T01:35:25;10.45;;;5.80;;
22064;SDS011;11197;53.110;8.468;2022-10-17T01:37:59;10.18;;;5.13;;
22064;SDS011;11197;53.110;8.468;2022-10-17T01:40:33;8.38;;;6.20;;
22064;SDS011;11197;53.110;8.468;2022-10-17T01:43:09;9.77;;;6.20;;
22064;SDS011;11197;53.110;8.468;2022-10-17T01:45:46;9.23;;;6.57;;
22064;SDS011;11197;53.110;8.468;2022-10-17T01:48:22;9.70;;;6.15;;
22064;SDS011;11197;53.110;8.468;2022-10-17T01:50:53;7.63;;;5.82;;
22064;SDS011;11197;53.110;8.468;2022-10-17T01:53:36;9.77;;;5.68;;
22064;SDS011;11197;53.110;8.468;2022-10-17T01:56:06;8.93;;;5.53;;
22064;SDS011;11197;53.110;8.468;2022-10-17T01:58:38;9.30;;;5.80;;
22064;SDS011;11197;53.110;8.468;2022-10-17T02:01:10;8.38;;;5.78;;
22064;SDS011;11197;53.110;8.468;2022-10-17T02:03:37;9.85;;;5.55;;
22064;SDS011;11197;53.110;8.468;2022-10-17T02:06:06;9.82;;;5.63;;
22064;SDS011;11197;53.110;8.468;2022-10-17T02:08:41;8.48;;;5.65;;
22064;SDS011;11197;53.110;8.468;2022-10-17T02:11:21;9.40;;;5.38;;
22064;SDS011;11197;53.110;8.468;2022-10-17T02:22:16;8.23;;;4.80;;
22064;SDS011;11197;53.110;8.468;2022-10-17T02:27:41;8.63;;;5.20;;
22064;SDS011;11197;53.110;8.468;2022-10-17T02:30:19;6.50;;;4.95;;
22064;SDS011;11197;53.110;8.468;2022-10-17T02:32:54;9.27;;;4.90;;
22064;SDS011;11197;53.110;8.468;2022-10-17T02:35:24;7.45;;;4.93;;
22064;SDS011;11197;53.110;8.468;2022-10-17T02:37:54;5.75;;;3.97;;
22064;SDS011;11197;53.110;8.468;2022-10-17T02:40:21;6.50;;;4.10;;
22064;SDS011;11197;53.110;8.468;2022-10-17T02:42:50;5.80;;;4.60;;
22064;SDS011;11197;53.110;8.468;2022-10-17T02:45:19;5.22;;;4.32;;
22064;SDS011;11197;53.110;8.468;2022-10-17T02:50:37;7.20;;;4.50;;
22064;SDS011;11197;53.110;8.468;2022-10-17T02:53:27;8.00;;;4.78;;
22064;SDS011;11197;53.110;8.468;2022-10-17T02:55:59;6.22;;;4.30;;
22064;SDS011;11197;53.110;8.468;2022-10-17T02:58:32;9.50;;;5.13;;
22064;SDS011;11197;53.110;8.468;2022-10-17T03:00:59;10.40;;;5.18;;
22064;SDS011;11197;53.110;8.468;2022-10-17T03:03:27;7.20;;;5.30;;
22064;SDS011;11197;53.110;8.468;2022-10-17T03:05:58;8.85;;;5.28;;
22064;SDS011;11197;53.110;8.468;2022-10-17T03:08:25;6.82;;;5.03;;
22064;SDS011;11197;53.110;8.468;2022-10-17T03:10:51;7.00;;;5.10;;
22064;SDS011;11197;53.110;8.468;2022-10-17T03:13:17;6.75;;;5.13;;
22064;SDS011;11197;53.110;8.468;2022-10-17T03:15:44;8.43;;;4.88;;
22064;SDS011;11197;53.110;8.468;2022-10-17T03:18:10;8.85;;;4.90;;
22064;SDS011;11197;53.110;8.468;2022-10-17T03:20:36;7.63;;;5.35;;
22064;SDS011;11197;53.110;8.468;2022-10-17T03:23:01;8.23;;;5.30;;
22064;SDS011;11197;53.110;8.468;2022-10-17T03:25:28;6.97;;;5.40;;
22064;SDS011;11197;53.110;8.468;2022-10-17T03:27:54;7.68;;;4.97;;
22064;SDS011;11197;53.110;8.468;2022-10-17T03:30:25;8.70;;;4.93;;
22064;SDS011;11197;53.110;8.468;2022-10-17T03:32:52;6.68;;;5.30;;
22064;SDS011;11197;53.110;8.468;2022-10-17T03:35:17;7.15;;;4.85;;
22064;SDS011;11197;53.110;8.468;2022-10-17T03:37:47;7.30;;;4.47;;
22064;SDS011;11197;53.110;8.468;2022-10-17T03:40:14;5.85;;;4.57;;
22064;SDS011;11197;53.110;8.468;2022-10-17T03:42:39;7.80;;;5.53;;
22064;SDS011;11197;53.110;8.468;2022-10-17T03:45:06;9.65;;;6.40;;
22064;SDS011;11197;53.110;8.468;2022-10-17T03:47:32;7.50;;;5.80;;
22064;SDS011;11197;53.110;8.468;2022-10-17T03:49:58;8.00;;;6.43;;
22064;SDS011;11197;53.110;8.468;2022-10-17T03:52:24;9.52;;;5.95;;
22064;SDS011;11197;53.110;8.468;2022-10-17T03:54:49;10.80;;;6.10;;
22064;SDS011;11197;53.110;8.468;2022-10-17T03:57:17;9.98;;;5.93;;
22064;SDS011;11197;53.110;8.468;2022-10-17T03:59:43;8.40;;;6.07;;
22064;SDS011;11197;53.110;8.468;2022-10-17T04:02:16;6.65;;;5.68;;
22064;SDS011;11197;53.110;8.468;2022-10-17T04:05:00;7.57;;;5.97;;
22064;SDS011;11197;53.110;8.468;2022-10-17T04:07:26;9.07;;;6.18;;
22064;SDS011;11197;53.110;8.468;2022-10-17T04:09:52;9.57;;;7.03;;
22064;SDS011;11197;53.110;8.468;2022-10-17T04:12:20;8.02;;;6.63;;
22064;SDS011;11197;53.110;8.468;2022-10-17T04:14:47;10.80;;;6.72;;
22064;SDS011;11197;53.110;8.468;2022-10-17T04:17:15;9.52;;;6.32;;
22064;SDS011;11197;53.110;8.468;2022-10-17T04:19:40;7.88;;;6.60;;
22064;SDS011;11197;53.110;8.468;2022-10-17T04:22:07;8.90;;;6.78;;
22064;SDS011;11197;53.110;8.468;2022-10-17T04:24:35;8.50;;;6.70;;
22064;SDS011;11197;53.110;8.468;2022-10-17T04:27:01;10.85;;;7.45;;
22064;SDS011;11197;53.110;8.468;2022-10-17T04:29:30;11.23;;;7.90;;
22064;SDS011;11197;53.110;8.468;2022-10-17T04:32:05;8.43;;;7.03;;
22064;SDS011;11197;53.110;8.468;2022-10-17T04:34:41;7.75;;;6.95;;
22064;SDS011;11197;53.110;8.468;2022-10-17T04:37:07;9.07;;;7.13;;
22064;SDS011;11197;53.110;8.468;2022-10-17T04:39:34;9.68;;;8.05;;
22064;SDS011;11197;53.110;8.468;2022-10-17T04:42:00;12.02;;;8.07;;
22064;SDS011;11197;53.110;8.468;2022-10-17T04:44:26;9.80;;;8.25;;
22064;SDS011;11197;53.110;8.468;2022-10-17T04:46:56;10.05;;;8.05;;
22064;SDS011;11197;53.110;8.468;2022-10-17T04:49:23;12.75;;;8.00;;
22064;SDS011;11197;53.110;8.468;2022-10-17T04:51:52;11.50;;;8.50;;
22064;SDS011;11197;53.110;8.468;2022-10-17T04:54:39;11.18;;;8.32;;
22064;SDS011;11197;53.110;8.468;2022-10-17T04:57:07;10.30;;;7.40;;
22064;SDS011;11197;53.110;8.468;2022-10-17T04:59:35;9.90;;;7.82;;
22064;SDS011;11197;53.110;8.468;2022-10-17T05:02:14;10.48;;;8.30;;
22064;SDS011;11197;53.110;8.468;2022-10-17T05:04:40;11.57;;;8.60;;
22064;SDS011;11197;53.110;8.468;2022-10-17T05:07:08;11.13;;;7.95;;
22064;SDS011;11197;53.110;8.468;2022-10-17T05:10:00;10.88;;;8.18;;
22064;SDS011;11197;53.110;8.468;2022-10-17T05:12:27;9.25;;;7.05;;
22064;SDS011;11197;53.110;8.468;2022-10-17T05:14:53;9.38;;;7.28;;
22064;SDS011;11197;53.110;8.468;2022-10-17T05:17:20;11.00;;;8.50;;
22064;SDS011;11197;53.110;8.468;2022-10-17T05:19:46;14.07;;;7.68;;
22064;SDS011;11197;53.110;8.468;2022-10-17T05:22:13;10.65;;;7.05;;
22064;SDS011;11197;53.110;8.468;2022-10-17T05:24:40;8.98;;;7.57;;
22064;SDS011;11197;53.110;8.468;2022-10-17T05:27:07;9.45;;;7.20;;
22064;SDS011;11197;53.110;8.468;2022-10-17T05:29:33;14.32;;;7.72;;
22064;SDS011;11197;53.110;8.468;2022-10-17T05:32:11;11.27;;;8.73;;
22064;SDS011;11197;53.110;8.468;2022-10-17T05:34:37;11.45;;;8.57;;
22064;SDS011;11197;53.110;8.468;2022-10-17T05:37:03;10.63;;;8.27;;
22064;SDS011;11197;53.110;8.468;2022-10-17T05:39:30;12.40;;;7.95;;
22064;SDS011;11197;53.110;8.468;2022-10-17T05:41:57;11.10;;;8.02;;
22064;SDS011;11197;53.110;8.468;2022-10-17T05:44:23;15.85;;;8.73;;
22064;SDS011;11197;53.110;8.468;2022-10-17T05:46:53;10.20;;;8.05;;
22064;SDS011;11197;53.110;8.468;2022-10-17T05:49:20;13.35;;;8.25;;
22064;SDS011;11197;53.110;8.468;2022-10-17T05:51:47;9.55;;;7.38;;
22064;SDS011;11197;53.110;8.468;2022-10-17T05:54:13;8.90;;;7.68;;
22064;SDS011;11197;53.110;8.468;2022-10-17T05:56:39;11.10;;;7.88;;
22064;SDS011;11197;53.110;8.468;2022-10-17T05:59:06;9.93;;;7.32;;
22064;SDS011;11197;53.110;8.468;2022-10-17T06:01:42;10.32;;;7.15;;
22064;SDS011;11197;53.110;8.468;2022-10-17T06:04:08;8.93;;;8.02;;
22064;SDS011;11197;53.110;8.468;2022-10-17T06:06:36;10.60;;;8.32;;
22064;SDS011;11197;53.110;8.468;2022-10-17T06:09:03;11.10;;;8.73;;
22064;SDS011;11197;53.110;8.468;2022-10-17T06:11:33;11.95;;;8.90;;
22064;SDS011;11197;53.110;8.468;2022-10-17T06:13:59;11.27;;;8.38;;
22064;SDS011;11197;53.110;8.468;2022-10-17T06:16:27;10.90;;;8.07;;
22064;SDS011;11197;53.110;8.468;2022-10-17T06:18:54;12.43;;;8.43;;
22064;SDS011;11197;53.110;8.468;2022-10-17T06:21:22;11.70;;;8.65;;
22064;SDS011;11197;53.110;8.468;2022-10-17T06:23:52;10.73;;;8.07;;
22064;SDS011;11197;53.110;8.468;2022-10-17T06:26:29;11.80;;;7.95;;
22064;SDS011;11197;53.110;8.468;2022-10-17T06:28:55;12.38;;;8.50;;
22064;SDS011;11197;53.110;8.468;2022-10-17T06:31:22;12.98;;;9.73;;
22064;SDS011;11197;53.110;8.468;2022-10-17T06:33:49;16.05;;;9.63;;
22064;SDS011;11197;53.110;8.468;2022-10-17T06:36:16;13.07;;;9.38;;
22064;SDS011;11197;53.110;8.468;2022-10-17T06:38:43;14.30;;;9.43;;
22064;SDS011;11197;53.110;8.468;2022-10-17T06:41:25;12.00;;;8.93;;
22064;SDS011;11197;53.110;8.468;2022-10-17T06:43:53;11.70;;;9.43;;
22064;SDS011;11197;53.110;8.468;2022-10-17T06:46:34;12.88;;;9.80;;
22064;SDS011;11197;53.110;8.468;2022-10-17T06:49:03;12.38;;;9.68;;
22064;SDS011;11197;53.110;8.468;2022-10-17T06:51:50;17.40;;;9.68;;
22064;SDS011;11197;53.110;8.468;2022-10-17T06:54:20;16.30;;;9.38;;
22064;SDS011;11197;53.110;8.468;2022-10-17T06:56:59;11.38;;;8.90;;
22064;SDS011;11197;53.110;8.468;2022-10-17T06:59:46;12.32;;;9.30;;
22064;SDS011;11197;53.110;8.468;2022-10-17T07:02:19;13.52;;;9.48;;
22064;SDS011;11197;53.110;8.468;2022-10-17T07:04:45;12.98;;;9.50;;
22064;SDS011;11197;53.110;8.468;2022-10-17T07:07:12;13.32;;;9.65;;
22064;SDS011;11197;53.110;8.468;2022-10-17T07:09:38;13.27;;;9.55;;
22064;SDS011;11197;53.110;8.468;2022-10-17T07:12:06;14.80;;;9.15;;
22064;SDS011;11197;53.110;8.468;2022-10-17T07:14:33;15.40;;;9.88;;
22064;SDS011;11197;53.110;8.468;2022-10-17T07:17:00;12.32;;;8.85;;
22064;SDS011;11197;53.110;8.468;2022-10-17T07:19:28;14.10;;;8.60;;
22064;SDS011;11197;53.110;8.468;2022-10-17T07:21:54;11.73;;;8.82;;
22064;SDS011;11197;53.110;8.468;2022-10-17T07:24:20;10.70;;;8.25;;
22064;SDS011;11197;53.110;8.468;2022-10-17T07:26:58;12.25;;;8.60;;
22064;SDS011;11197;53.110;8.468;2022-10-17T07:29:24;13.10;;;8.60;;
22064;SDS011;11197;53.110;8.468;2022-10-17T07:32:14;11.70;;;8.20;;
22064;SDS011;11197;53.110;8.468;2022-10-17T07:34:40;10.38;;;8.38;;
22064;SDS011;11197;53.110;8.468;2022-10-17T07:37:07;9.90;;;5.85;;
22064;SDS011;11197;53.110;8.468;2022-10-17T07:39:35;11.02;;;7.93;;
22064;SDS011;11197;53.110;8.468;2022-10-17T07:42:01;12.30;;;7.07;;
22064;SDS011;11197;53.110;8.468;2022-10-17T07:44:28;9.23;;;7.75;;
22064;SDS011;11197;53.110;8.468;2022-10-17T07:46:54;10.60;;;8.15;;
22064;SDS011;11197;53.110;8.468;2022-10-17T07:49:20;10.13;;;8.02;;
22064;SDS011;11197;53.110;8.468;2022-10-17T07:51:46;11.52;;;8.00;;
22064;SDS011;11197;53.110;8.468;2022-10-17T07:54:12;11.52;;;7.50;;
22064;SDS011;11197;53.110;8.468;2022-10-17T07:56:38;10.45;;;7.22;;
22064;SDS011;11197;53.110;8.468;2022-10-17T07:59:04;9.77;;;7.97;;
22064;SDS011;11197;53.110;8.468;2022-10-17T08:01:30;11.63;;;7.80;;
22064;SDS011;11197;53.110;8.468;2022-10-17T08:03:56;12.63;;;7.32;;
22064;SDS011;11197;53.110;8.468;2022-10-17T08:06:22;11.77;;;8.15;;
22064;SDS011;11197;53.110;8.468;2022-10-17T08:08:47;11.48;;;7.70;;
22064;SDS011;11197;53.110;8.468;2022-10-17T08:11:16;15.15;;;7.43;;
22064;SDS011;11197;53.110;8.468;2022-10-17T08:13:42;9.40;;;6.45;;
22064;SDS011;11197;53.110;8.468;2022-10-17T08:16:09;12.15;;;7.50;;
22064;SDS011;11197;53.110;8.468;2022-10-17T08:18:37;11.45;;;6.97;;
22064;SDS011;11197;53.110;8.468;2022-10-17T08:21:05;10.40;;;6.97;;
22064;SDS011;11197;53.110;8.468;2022-10-17T08:23:32;8.88;;;6.47;;
22064;SDS011;11197;53.110;8.468;2022-10-17T08:26:03;10.80;;;6.40;;
22064;SDS011;11197;53.110;8.468;2022-10-17T08:28:36;11.73;;;7.00;;
22064;SDS011;11197;53.110;8.468;2022-10-17T08:33:39;10.27;;;6.93;;
22064;SDS011;11197;53.110;8.468;2022-10-17T08:36:06;10.18;;;6.65;;
22064;SDS011;11197;53.110;8.468;2022-10-17T08:38:37;9.60;;;6.90;;
22064;SDS011;11197;53.110;8.468;2022-10-17T08:41:12;8.63;;;6.50;;
22064;SDS011;11197;53.110;8.468;2022-10-17T08:46:28;10.18;;;6.40;;
22064;SDS011;11197;53.110;8.468;2022-10-17T08:48:58;11.50;;;6.25;;
22064;SDS011;11197;53.110;8.468;2022-10-17T08:51:29;9.35;;;6.10;;
22064;SDS011;11197;53.110;8.468;2022-10-17T08:56:44;9.38;;;5.75;;
22064;SDS011;11197;53.110;8.468;2022-10-17T08:59:15;10.73;;;6.45;;
22064;SDS011;11197;53.110;8.468;2022-10-17T09:01:49;9.35;;;6.40;;
22064;SDS011;11197;53.110;8.468;2022-10-17T09:04:45;7.35;;;6.05;;
22064;SDS011;11197;53.110;8.468;2022-10-17T09:18:12;8.23;;;5.83;;
22064;SDS011;11197;53.110;8.468;2022-10-17T09:23:47;8.70;;;5.47;;
22064;SDS011;11197;53.110;8.468;2022-10-17T09:26:19;9.18;;;5.90;;
22064;SDS011;11197;53.110;8.468;2022-10-17T09:28:50;7.47;;;5.43;;
22064;SDS011;11197;53.110;8.468;2022-10-17T09:31:25;7.05;;;5.57;;
22064;SDS011;11197;53.110;8.468;2022-10-17T09:34:09;10.52;;;5.90;;
22064;SDS011;11197;53.110;8.468;2022-10-17T09:36:38;14.13;;;6.03;;
22064;SDS011;11197;53.110;8.468;2022-10-17T09:39:10;11.60;;;6.22;;
22064;SDS011;11197;53.110;8.468;2022-10-17T09:41:41;8.40;;;5.88;;
22064;SDS011;11197;53.110;8.468;2022-10-17T09:44:20;12.95;;;5.40;;
22064;SDS011;11197;53.110;8.468;2022-10-17T09:49:44;10.90;;;5.78;;
22064;SDS011;11197;53.110;8.468;2022-10-17T09:57:14;9.80;;;5.85;;
22064;SDS011;11197;53.110;8.468;2022-10-17T10:04:50;10.57;;;5.95;;
22064;SDS011;11197;53.110;8.468;2022-10-17T10:07:23;7.78;;;5.68;;
22064;SDS011;11197;53.110;8.468;2022-10-17T10:09:51;10.63;;;5.57;;
22064;SDS011;11197;53.110;8.468;2022-10-17T10:12:28;8.07;;;5.80;;
22064;SDS011;11197;53.110;8.468;2022-10-17T10:14:57;8.75;;;5.78;;
22064;SDS011;11197;53.110;8.468;2022-10-17T10:23:15;10.32;;;6.00;;
22064;SDS011;11197;53.110;8.468;2022-10-17T10:25:54;10.10;;;5.90;;
22064;SDS011;11197;53.110;8.468;2022-10-17T10:28:28;9.60;;;5.65;;
22064;SDS011;11197;53.110;8.468;2022-10-17T10:31:07;9.15;;;5.80;;
22064;SDS011;11197;53.110;8.468;2022-10-17T10:33:36;9.05;;;5.47;;
22064;SDS011;11197;53.110;8.468;2022-10-17T10:36:07;13.75;;;6.30;;
22064;SDS011;11197;53.110;8.468;2022-10-17T10:38:33;9.70;;;5.90;;
22064;SDS011;11197;53.110;8.468;2022-10-17T10:41:04;9.30;;;5.97;;
22064;SDS011;11197;53.110;8.468;2022-10-17T10:46:01;8.98;;;6.05;;
22064;SDS011;11197;53.110;8.468;2022-10-17T10:48:39;9.65;;;6.03;;
22064;SDS011;11197;53.110;8.468;2022-10-17T10:51:20;10.52;;;5.70;;
22064;SDS011;11197;53.110;8.468;2022-10-17T10:54:09;10.43;;;5.32;;
22064;SDS011;11197;53.110;8.468;2022-10-17T10:56:40;10.93;;;6.05;;
22064;SDS011;11197;53.110;8.468;2022-10-17T11:04:25;6.70;;;5.00;;
22064;SDS011;11197;53.110;8.468;2022-10-17T11:07:02;8.43;;;5.33;;
22064;SDS011;11197;53.110;8.468;2022-10-17T11:09:57;9.02;;;5.40;;
22064;SDS011;11197;53.110;8.468;2022-10-17T11:12:22;9.93;;;5.47;;
22064;SDS011;11197;53.110;8.468;2022-10-17T11:17:54;8.55;;;5.20;;
22064;SDS011;11197;53.110;8.468;2022-10-17T11:20:28;12.02;;;5.60;;
22064;SDS011;11197;53.110;8.468;2022-10-17T11:23:07;12.65;;;5.32;;
22064;SDS011;11197;53.110;8.468;2022-10-17T11:25:47;10.30;;;5.20;;
22064;SDS011;11197;53.110;8.468;2022-10-17T11:30:59;11.75;;;5.88;;
22064;SDS011;11197;53.110;8.468;2022-10-17T11:36:28;9.25;;;6.20;;
22064;SDS011;11197;53.110;8.468;2022-10-17T11:39:01;15.48;;;6.45;;
22064;SDS011;11197;53.110;8.468;2022-10-17T11:41:52;7.68;;;6.10;;
22064;SDS011;11197;53.110;8.468;2022-10-17T11:44:34;8.80;;;6.22;;
22064;SDS011;11197;53.110;8.468;2022-10-17T11:47:03;9.02;;;6.30;;
22064;SDS011;11197;53.110;8.468;2022-10-17T11:49:37;10.85;;;6.18;;
22064;SDS011;11197;53.110;8.468;2022-10-17T11:52:24;10.30;;;6.18;;
22064;SDS011;11197;53.110;8.468;2022-10-17T11:55:08;7.95;;;5.00;;
22064;SDS011;11197;53.110;8.468;2022-10-17T12:06:03;14.63;;;7.65;;
22064;SDS011;11197;53.110;8.468;2022-10-17T12:14:11;13.38;;;8.23;;
22064;SDS011;11197;53.110;8.468;2022-10-17T12:16:57;13.20;;;8.52;;
22064;SDS011;11197;53.110;8.468;2022-10-17T12:19:28;10.65;;;7.53;;
22064;SDS011;11197;53.110;8.468;2022-10-17T12:25:15;14.20;;;9.00;;
22064;SDS011;11197;53.110;8.468;2022-10-17T12:27:44;11.07;;;8.55;;
22064;SDS011;11197;53.110;8.468;2022-10-17T12:35:22;11.98;;;8.75;;
22064;SDS011;11197;53.110;8.468;2022-10-17T12:45:51;13.13;;;9.60;;
22064;SDS011;11197;53.110;8.468;2022-10-17T12:53:56;10.80;;;9.40;;
22064;SDS011;11197;53.110;8.468;2022-10-17T12:56:37;11.98;;;9.93;;
22064;SDS011;11197;53.110;8.468;2022-10-17T12:59:15;14.00;;;9.93;;
22064;SDS011;11197;53.110;8.468;2022-10-17T13:01:47;12.65;;;9.48;;
22064;SDS011;11197;53.110;8.468;2022-10-17T13:04:16;10.00;;;8.85;;
22064;SDS011;11197;53.110;8.468;2022-10-17T13:06:53;11.57;;;8.13;;
22064;SDS011;11197;53.110;8.468;2022-10-17T13:11:53;10.73;;;8.50;;
22064;SDS011;11197;53.110;8.468;2022-10-17T13:14:21;11.10;;;9.02;;
22064;SDS011;11197;53.110;8.468;2022-10-17T13:16:53;10.90;;;8.68;;
22064;SDS011;11197;53.110;8.468;2022-10-17T13:19:20;10.65;;;8.82;;
22064;SDS011;11197;53.110;8.468;2022-10-17T13:21:52;13.40;;;9.45;;
22064;SDS011;11197;53.110;8.468;2022-10-17T13:24:31;12.30;;;9.48;;
22064;SDS011;11197;53.110;8.468;2022-10-17T13:26:59;10.35;;;9.15;;
22064;SDS011;11197;53.110;8.468;2022-10-17T13:29:26;10.82;;;8.93;;
22064;SDS011;11197;53.110;8.468;2022-10-17T13:32:03;11.00;;;9.00;;
22064;SDS011;11197;53.110;8.468;2022-10-17T13:34:30;12.60;;;9.70;;
22064;SDS011;11197;53.110;8.468;2022-10-17T13:37:02;10.70;;;8.40;;
22064;SDS011;11197;53.110;8.468;2022-10-17T13:39:34;12.38;;;8.43;;
22064;SDS011;11197;53.110;8.468;2022-10-17T13:42:04;10.77;;;7.65;;
22064;SDS011;11197;53.110;8.468;2022-10-17T13:44:32;10.75;;;7.78;;
22064;SDS011;11197;53.110;8.468;2022-10-17T13:46:59;10.90;;;7.75;;
22064;SDS011;11197;53.110;8.468;2022-10-17T13:49:31;11.82;;;7.68;;
22064;SDS011;11197;53.110;8.468;2022-10-17T13:52:13;10.88;;;7.63;;
22064;SDS011;11197;53.110;8.468;2022-10-17T13:54:45;10.02;;;6.53;;
22064;SDS011;11197;53.110;8.468;2022-10-17T13:59:45;7.95;;;6.55;;
22064;SDS011;11197;53.110;8.468;2022-10-17T14:02:24;7.57;;;5.80;;
22064;SDS011;11197;53.110;8.468;2022-10-17T14:07:37;11.80;;;6.78;;
22064;SDS011;11197;53.110;8.468;2022-10-17T14:13:03;9.70;;;5.85;;
22064;SDS011;11197;53.110;8.468;2022-10-17T14:15:33;10.65;;;6.20;;
22064;SDS011;11197;53.110;8.468;2022-10-17T14:18:01;7.85;;;5.63;;
22064;SDS011;11197;53.110;8.468;2022-10-17T14:20:29;9.05;;;6.07;;
22064;SDS011;11197;53.110;8.468;2022-10-17T14:22:57;7.90;;;5.57;;
22064;SDS011;11197;53.110;8.468;2022-10-17T14:32:59;8.50;;;6.60;;
22064;SDS011;11197;53.110;8.468;2022-10-17T14:35:28;7.03;;;6.32;;
22064;SDS011;11197;53.110;8.468;2022-10-17T14:38:02;9.02;;;6.30;;
22064;SDS011;11197;53.110;8.468;2022-10-17T14:40:30;7.70;;;6.25;;
22064;SDS011;11197;53.110;8.468;2022-10-17T14:42:59;8.32;;;6.43;;
22064;SDS011;11197;53.110;8.468;2022-10-17T14:45:31;9.45;;;6.65;;
22064;SDS011;11197;53.110;8.468;2022-10-17T14:48:03;9.13;;;6.88;;
22064;SDS011;11197;53.110;8.468;2022-10-17T14:50:31;7.40;;;6.60;;
22064;SDS011;11197;53.110;8.468;2022-10-17T14:55:36;8.90;;;6.85;;
22064;SDS011;11197;53.110;8.468;2022-10-17T14:58:26;8.85;;;6.68;;
22064;SDS011;11197;53.110;8.468;2022-10-17T15:00:53;8.70;;;6.47;;
22064;SDS011;11197;53.110;8.468;2022-10-17T15:03:19;9.20;;;7.00;;
22064;SDS011;11197;53.110;8.468;2022-10-17T15:05:46;10.48;;;7.05;;
22064;SDS011;11197;53.110;8.468;2022-10-17T15:08:15;10.65;;;6.90;;
22064;SDS011;11197;53.110;8.468;2022-10-17T15:10:43;8.77;;;6.70;;
22064;SDS011;11197;53.110;8.468;2022-10-17T15:13:10;9.25;;;6.50;;
22064;SDS011;11197;53.110;8.468;2022-10-17T15:15:38;8.95;;;6.70;;
22064;SDS011;11197;53.110;8.468;2022-10-17T15:18:06;10.90;;;6.70;;
22064;SDS011;11197;53.110;8.468;2022-10-17T15:20:34;9.43;;;6.65;;
22064;SDS011;11197;53.110;8.468;2022-10-17T15:23:01;8.60;;;6.35;;
22064;SDS011;11197;53.110;8.468;2022-10-17T15:25:27;7.45;;;6.28;;
22064;SDS011;11197;53.110;8.468;2022-10-17T15:27:59;7.35;;;6.53;;
22064;SDS011;11197;53.110;8.468;2022-10-17T15:30:30;10.45;;;6.53;;
22064;SDS011;11197;53.110;8.468;2022-10-17T15:32:58;10.35;;;5.40;;
22064;SDS011;11197;53.110;8.468;2022-10-17T15:35:25;7.47;;;6.20;;
22064;SDS011;11197;53.110;8.468;2022-10-17T15:37:52;8.57;;;6.47;;
22064;SDS011;11197;53.110;8.468;2022-10-17T15:40:23;6.65;;;6.05;;
22064;SDS011;11197;53.110;8.468;2022-10-17T15:42:52;9.45;;;6.70;;
22064;SDS011;11197;53.110;8.468;2022-10-17T15:45:20;8.15;;;6.72;;
22064;SDS011;11197;53.110;8.468;2022-10-17T15:47:50;8.50;;;6.80;;
22064;SDS011;11197;53.110;8.468;2022-10-17T15:50:19;8.05;;;6.47;;
22064;SDS011;11197;53.110;8.468;2022-10-17T15:52:46;9.73;;;6.68;;
22064;SDS011;11197;53.110;8.468;2022-10-17T15:55:16;8.95;;;6.65;;
22064;SDS011;11197;53.110;8.468;2022-10-17T15:57:44;8.15;;;6.25;;
22064;SDS011;11197;53.110;8.468;2022-10-17T16:00:17;8.57;;;6.70;;
22064;SDS011;11197;53.110;8.468;2022-10-17T16:02:46;8.05;;;6.53;;
22064;SDS011;11197;53.110;8.468;2022-10-17T16:05:17;9.00;;;6.72;;
22064;SDS011;11197;53.110;8.468;2022-10-17T16:07:53;8.20;;;6.82;;
22064;SDS011;11197;53.110;8.468;2022-10-17T16:10:22;9.57;;;7.35;;
22064;SDS011;11197;53.110;8.468;2022-10-17T16:12:50;8.38;;;7.35;;
22064;SDS011;11197;53.110;8.468;2022-10-17T16:17:44;9.00;;;7.85;;
22064;SDS011;11197;53.110;8.468;2022-10-17T16:20:11;11.45;;;8.77;;
22064;SDS011;11197;53.110;8.468;2022-10-17T16:22:38;11.95;;;8.57;;
22064;SDS011;11197;53.110;8.468;2022-10-17T16:25:13;11.25;;;8.65;;
22064;SDS011;11197;53.110;8.468;2022-10-17T16:27:44;11.70;;;9.05;;
22064;SDS011;11197;53.110;8.468;2022-10-17T16:30:12;10.82;;;9.30;;
22064;SDS011;11197;53.110;8.468;2022-10-17T16:32:38;13.15;;;9.40;;
22064;SDS011;11197;53.110;8.468;2022-10-17T16:35:05;12.45;;;9.43;;
22064;SDS011;11197;53.110;8.468;2022-10-17T16:40:14;11.90;;;10.07;;
22064;SDS011;11197;53.110;8.468;2022-10-17T16:42:43;11.52;;;10.07;;
22064;SDS011;11197;53.110;8.468;2022-10-17T16:45:14;14.45;;;10.15;;
22064;SDS011;11197;53.110;8.468;2022-10-17T16:47:45;12.07;;;9.73;;
22064;SDS011;11197;53.110;8.468;2022-10-17T16:50:12;10.85;;;9.20;;
22064;SDS011;11197;53.110;8.468;2022-10-17T16:52:38;9.52;;;6.90;;
22064;SDS011;11197;53.110;8.468;2022-10-17T16:55:04;5.78;;;4.10;;
22064;SDS011;11197;53.110;8.468;2022-10-17T16:57:31;5.65;;;3.97;;
22064;SDS011;11197;53.110;8.468;2022-10-17T16:59:56;4.45;;;2.45;;
22064;SDS011;11197;53.110;8.468;2022-10-17T17:02:24;4.28;;;2.25;;
22064;SDS011;11197;53.110;8.468;2022-10-17T17:04:50;4.25;;;2.90;;
22064;SDS011;11197;53.110;8.468;2022-10-17T17:07:16;4.75;;;2.20;;
22064;SDS011;11197;53.110;8.468;2022-10-17T17:09:44;3.58;;;2.20;;
22064;SDS011;11197;53.110;8.468;2022-10-17T17:12:11;4.93;;;2.47;;
22064;SDS011;11197;53.110;8.468;2022-10-17T17:14:37;3.30;;;2.35;;
22064;SDS011;11197;53.110;8.468;2022-10-17T17:17:03;3.83;;;2.60;;
22064;SDS011;11197;53.110;8.468;2022-10-17T17:19:29;5.07;;;2.60;;
22064;SDS011;11197;53.110;8.468;2022-10-17T17:21:55;5.53;;;3.33;;
22064;SDS011;11197;53.110;8.468;2022-10-17T17:24:21;5.07;;;3.10;;
22064;SDS011;11197;53.110;8.468;2022-10-17T17:26:50;4.75;;;3.40;;
22064;SDS011;11197;53.110;8.468;2022-10-17T17:29:18;6.13;;;3.50;;
22064;SDS011;11197;53.110;8.468;2022-10-17T17:31:44;5.55;;;3.60;;
22064;SDS011;11197;53.110;8.468;2022-10-17T17:34:10;6.15;;;3.50;;